Sumise Maru No.20 — JG5478 — position and weather

sailwx.info

Track history (hours):
 
Tides and Currents Weather Stations Pressure Air Temp Water Temp Dewpoint Dewpoint Depression Visibility Wind Speed Wind Dir Waves Ship Positions

Sumise Maru No.20

Last reported at 2017-Nov-16 02:51 UTC. Time now 2017-Nov-18 17:57 UTC.
Position N 34°58' E 139°30'.

Length 117 m; draft 5.2 m.

Type: Cargo ship. MMSI: 431100268.

Date/timePositionNaut miles runAvg speedWind from/ knotsBaromVisibWave heightAir tempDewpointWater temp
2017-Nov-16 02:51N 34°58' E 139°30'412.6
2017-Nov-16 02:30N 35°00' E 139°34'612.6
2017-Nov-16 02:00N 35°04' E 139°40'612.8
2017-Nov-16 01:30N 35°09' E 139°45'612.7
2017-Nov-16 01:00N 35°16' E 139°46'612.2
2017-Nov-16 00:30N 35°21' E 139°42'5 9.1
2017-Nov-16 00:00N 35°26' E 139°41'0 0.1
2017-Nov-15 23:26N 35°26' E 139°41'0 0.0
2017-Nov-15 22:59N 35°26' E 139°41'0 0.0
2017-Nov-15 22:29N 35°26' E 139°41'0 0.0
2017-Nov-15 21:56N 35°26' E 139°41'0 0.0
2017-Nov-15 21:29N 35°26' E 139°41'0 0.0
2017-Nov-15 20:59N 35°26' E 139°41'0 0.0
2017-Nov-15 20:29N 35°26' E 139°41'0 0.0
2017-Nov-15 19:59N 35°26' E 139°41'0 0.0
2017-Nov-15 19:29N 35°26' E 139°41'0 0.0
2017-Nov-15 18:59N 35°26' E 139°41'0 0.0
2017-Nov-15 18:29N 35°26' E 139°41'0 0.0
2017-Nov-15 17:56N 35°26' E 139°41'0 0.0
2017-Nov-15 17:29N 35°26' E 139°41'0 0.0
2017-Nov-15 16:56N 35°26' E 139°41'0 0.0
2017-Nov-15 16:29N 35°26' E 139°41'0 0.0
2017-Nov-15 15:59N 35°26' E 139°41'0 0.0
2017-Nov-15 15:29N 35°26' E 139°41'0 0.0
2017-Nov-15 14:59N 35°26' E 139°41'0 0.0
2017-Nov-15 14:29N 35°26' E 139°41'0 0.0
2017-Nov-15 13:59N 35°26' E 139°41'0 0.0
2017-Nov-15 13:29N 35°26' E 139°41'0 0.0
2017-Nov-15 12:59N 35°26' E 139°41'0 0.0
2017-Nov-15 12:29N 35°26' E 139°41'0 0.0
2017-Nov-15 11:59N 35°26' E 139°41'0 0.0
2017-Nov-15 11:29N 35°26' E 139°41'0 0.0
2017-Nov-15 10:59N 35°26' E 139°41'0 0.0
2017-Nov-15 10:29N 35°26' E 139°41'0 0.0
2017-Nov-15 10:01N 35°26' E 139°41'2 4.1
2017-Nov-15 09:31N 35°26' E 139°44'510.7
2017-Nov-15 09:00N 35°29' E 139°49'10 1.0
2017-Nov-14 23:40N 35°35' E 139°58'0 0.0
2017-Nov-14 23:27N 35°35' E 139°58'6 0.4
2017-Nov-14 10:34N 35°30' E 139°54'311.6
2017-Nov-14 10:20N 35°28' E 139°52'411.5
2017-Nov-14 10:00N 35°26' E 139°48'611.3
2017-Nov-14 09:30N 35°21' E 139°45'5 9.8
2017-Nov-14 09:00N 35°16' E 139°46'510.3
2017-Nov-14 08:30N 35°11' E 139°47'611.1
2017-Nov-14 08:00N 35°06' E 139°45'510.7
2017-Nov-14 07:30N 35°02' E 139°40'511.0
2017-Nov-14 07:00N 34°58' E 139°35'  
2017-Nov-07 19:36N 34°09' E 135°02'212.2
2017-Nov-07 19:27N 34°11' E 135°03'4 9.6
2017-Nov-07 19:01N 34°14' E 135°06'1 2.7
2017-Nov-07 18:30N 34°14' E 135°08'0 0.0
2017-Nov-07 17:55N 34°14' E 135°08'0 0.0
2017-Nov-07 17:25N 34°14' E 135°08'0 0.0
2017-Nov-07 17:01N 34°14' E 135°08'0 0.0
2017-Nov-07 16:30N 34°14' E 135°08'0 0.0
2017-Nov-07 16:00N 34°14' E 135°08'0 0.0
2017-Nov-07 15:24N 34°14' E 135°08'0 0.0
2017-Nov-07 15:00N 34°14' E 135°08'1 1.6
2017-Nov-07 14:30N 34°14' E 135°07'5 9.3
2017-Nov-07 14:00N 34°11' E 135°03'612.2
2017-Nov-07 13:30N 34°05' E 135°01'  
Track history (hours):
 
Tides and Currents Weather Stations Pressure Air Temp Water Temp Dewpoint Dewpoint Depression Visibility Wind Speed Wind Dir Waves Ship Positions

Sumise Maru No.20

Last reported at 2017-Nov-16 02:51 UTC. Time now 2017-Nov-18 17:57 UTC.
Position N 34°58' E 139°30'.

Length 117 m; draft 5.2 m.

Type: Cargo ship. MMSI: 431100268.

Date/timePositionNaut miles runAvg speedWind from/ knotsBaromVisibWave heightAir tempDewpointWater temp
2017-Nov-16 02:51N 34°58' E 139°30'412.6
2017-Nov-16 02:30N 35°00' E 139°34'612.6
2017-Nov-16 02:00N 35°04' E 139°40'612.8
2017-Nov-16 01:30N 35°09' E 139°45'612.7
2017-Nov-16 01:00N 35°16' E 139°46'612.2
2017-Nov-16 00:30N 35°21' E 139°42'5 9.1
2017-Nov-16 00:00N 35°26' E 139°41'0 0.1
2017-Nov-15 23:26N 35°26' E 139°41'0 0.0
2017-Nov-15 22:59N 35°26' E 139°41'0 0.0
2017-Nov-15 22:29N 35°26' E 139°41'0 0.0
2017-Nov-15 21:56N 35°26' E 139°41'0 0.0
2017-Nov-15 21:29N 35°26' E 139°41'0 0.0
2017-Nov-15 20:59N 35°26' E 139°41'0 0.0
2017-Nov-15 20:29N 35°26' E 139°41'0 0.0
2017-Nov-15 19:59N 35°26' E 139°41'0 0.0
2017-Nov-15 19:29N 35°26' E 139°41'0 0.0
2017-Nov-15 18:59N 35°26' E 139°41'0 0.0
2017-Nov-15 18:29N 35°26' E 139°41'0 0.0
2017-Nov-15 17:56N 35°26' E 139°41'0 0.0
2017-Nov-15 17:29N 35°26' E 139°41'0 0.0
2017-Nov-15 16:56N 35°26' E 139°41'0 0.0
2017-Nov-15 16:29N 35°26' E 139°41'0 0.0
2017-Nov-15 15:59N 35°26' E 139°41'0 0.0
2017-Nov-15 15:29N 35°26' E 139°41'0 0.0
2017-Nov-15 14:59N 35°26' E 139°41'0 0.0
2017-Nov-15 14:29N 35°26' E 139°41'0 0.0
2017-Nov-15 13:59N 35°26' E 139°41'0 0.0
2017-Nov-15 13:29N 35°26' E 139°41'0 0.0
2017-Nov-15 12:59N 35°26' E 139°41'0 0.0
2017-Nov-15 12:29N 35°26' E 139°41'0 0.0
2017-Nov-15 11:59N 35°26' E 139°41'0 0.0
2017-Nov-15 11:29N 35°26' E 139°41'0 0.0
2017-Nov-15 10:59N 35°26' E 139°41'0 0.0
2017-Nov-15 10:29N 35°26' E 139°41'0 0.0
2017-Nov-15 10:01N 35°26' E 139°41'2 4.1
2017-Nov-15 09:31N 35°26' E 139°44'510.7
2017-Nov-15 09:00N 35°29' E 139°49'10 1.0
2017-Nov-14 23:40N 35°35' E 139°58'0 0.0
2017-Nov-14 23:27N 35°35' E 139°58'6 0.4
2017-Nov-14 10:34N 35°30' E 139°54'311.6
2017-Nov-14 10:20N 35°28' E 139°52'411.5
2017-Nov-14 10:00N 35°26' E 139°48'611.3
2017-Nov-14 09:30N 35°21' E 139°45'5 9.8
2017-Nov-14 09:00N 35°16' E 139°46'510.3
2017-Nov-14 08:30N 35°11' E 139°47'611.1
2017-Nov-14 08:00N 35°06' E 139°45'510.7
2017-Nov-14 07:30N 35°02' E 139°40'511.0
2017-Nov-14 07:00N 34°58' E 139°35'  
2017-Nov-07 19:36N 34°09' E 135°02'212.2
2017-Nov-07 19:27N 34°11' E 135°03'4 9.6
2017-Nov-07 19:01N 34°14' E 135°06'1 2.7
2017-Nov-07 18:30N 34°14' E 135°08'0 0.0
2017-Nov-07 17:55N 34°14' E 135°08'0 0.0
2017-Nov-07 17:25N 34°14' E 135°08'0 0.0
2017-Nov-07 17:01N 34°14' E 135°08'0 0.0
2017-Nov-07 16:30N 34°14' E 135°08'0 0.0
2017-Nov-07 16:00N 34°14' E 135°08'0 0.0
2017-Nov-07 15:24N 34°14' E 135°08'0 0.0
2017-Nov-07 15:00N 34°14' E 135°08'1 1.6
2017-Nov-07 14:30N 34°14' E 135°07'5 9.3
2017-Nov-07 14:00N 34°11' E 135°03'612.2
2017-Nov-07 13:30N 34°05' E 135°01'  

Dump ship's entire track history